sensor_id;sensor_type;location;lat;lon;timestamp;pressure;altitude;pressure_sealevel;temperature;humidity
73566;BME280;61846;52.970;-3.168;2023-04-10T00:00:47;100071.98;;;10.14;55.77
73566;BME280;61846;52.970;-3.168;2023-04-10T00:03:12;100064.53;;;10.72;53.72
73566;BME280;61846;52.970;-3.168;2023-04-10T00:05:37;100064.30;;;9.84;55.85
73566;BME280;61846;52.970;-3.168;2023-04-10T00:08:03;100061.64;;;9.92;56.33
73566;BME280;61846;52.970;-3.168;2023-04-10T00:10:28;100053.05;;;9.33;58.02
73566;BME280;61846;52.970;-3.168;2023-04-10T00:12:54;100053.31;;;10.25;55.87
73566;BME280;61846;52.970;-3.168;2023-04-10T00:15:19;100059.37;;;9.81;57.50
73566;BME280;61846;52.970;-3.168;2023-04-10T00:17:45;100071.29;;;8.46;61.11
73566;BME280;61846;52.970;-3.168;2023-04-10T00:20:11;100067.22;;;9.11;60.39
73566;BME280;61846;52.970;-3.168;2023-04-10T00:22:35;100063.59;;;9.75;59.04
73566;BME280;61846;52.970;-3.168;2023-04-10T00:25:01;100060.43;;;9.72;59.15
73566;BME280;61846;52.970;-3.168;2023-04-10T00:27:27;100056.77;;;8.59;61.74
73566;BME280;61846;52.970;-3.168;2023-04-10T00:29:52;100057.16;;;10.17;57.33
73566;BME280;61846;52.970;-3.168;2023-04-10T00:32:18;100059.52;;;11.31;54.00
73566;BME280;61846;52.970;-3.168;2023-04-10T00:34:43;100056.31;;;9.55;58.09
73566;BME280;61846;52.970;-3.168;2023-04-10T00:37:09;100060.88;;;9.47;58.25
73566;BME280;61846;52.970;-3.168;2023-04-10T00:39:34;100052.86;;;10.76;55.88
73566;BME280;61846;52.970;-3.168;2023-04-10T00:42:00;100048.13;;;9.65;58.32
73566;BME280;61846;52.970;-3.168;2023-04-10T00:44:25;100041.00;;;10.12;58.21
73566;BME280;61846;52.970;-3.168;2023-04-10T00:46:51;100042.75;;;9.65;59.07
73566;BME280;61846;52.970;-3.168;2023-04-10T00:49:17;100041.15;;;10.54;56.45
73566;BME280;61846;52.970;-3.168;2023-04-10T00:51:42;100047.51;;;9.10;60.20
73566;BME280;61846;52.970;-3.168;2023-04-10T00:54:08;100048.76;;;8.19;61.86
73566;BME280;61846;52.970;-3.168;2023-04-10T00:56:34;100039.82;;;8.17;62.35
73566;BME280;61846;52.970;-3.168;2023-04-10T00:58:59;100040.35;;;8.29;60.24
73566;BME280;61846;52.970;-3.168;2023-04-10T01:01:24;100035.99;;;9.14;57.17
73566;BME280;61846;52.970;-3.168;2023-04-10T01:03:50;100046.25;;;8.79;58.07
73566;BME280;61846;52.970;-3.168;2023-04-10T01:06:24;100035.69;;;8.95;57.69
73566;BME280;61846;52.970;-3.168;2023-04-10T01:08:49;100041.27;;;9.93;55.31
73566;BME280;61846;52.970;-3.168;2023-04-10T01:11:11;100052.65;;;8.57;57.26
73566;BME280;61846;52.970;-3.168;2023-04-10T01:13:37;100039.71;;;9.14;57.60
73566;BME280;61846;52.970;-3.168;2023-04-10T01:16:01;100033.50;;;10.14;54.69
73566;BME280;61846;52.970;-3.168;2023-04-10T01:18:28;100043.91;;;10.48;53.11
73566;BME280;61846;52.970;-3.168;2023-04-10T01:20:49;100042.10;;;9.36;56.26
73566;BME280;61846;52.970;-3.168;2023-04-10T01:25:44;100034.82;;;10.29;54.21
73566;BME280;61846;52.970;-3.168;2023-04-10T01:28:26;100037.80;;;8.56;56.84
73566;BME280;61846;52.970;-3.168;2023-04-10T01:30:33;100031.77;;;10.42;54.03
73566;BME280;61846;52.970;-3.168;2023-04-10T01:32:58;100027.08;;;9.42;56.99
73566;BME280;61846;52.970;-3.168;2023-04-10T01:35:23;100024.70;;;8.26;58.49
73566;BME280;61846;52.970;-3.168;2023-04-10T01:37:50;100021.45;;;8.41;59.25
73566;BME280;61846;52.970;-3.168;2023-04-10T01:40:16;100021.98;;;8.26;59.72
73566;BME280;61846;52.970;-3.168;2023-04-10T01:42:43;100002.37;;;9.55;57.23
73566;BME280;61846;52.970;-3.168;2023-04-10T01:45:08;100002.51;;;10.02;56.22
73566;BME280;61846;52.970;-3.168;2023-04-10T01:47:31;99992.50;;;9.69;57.20
73566;BME280;61846;52.970;-3.168;2023-04-10T01:49:56;99986.27;;;8.47;58.94
73566;BME280;61846;52.970;-3.168;2023-04-10T01:52:22;99979.78;;;8.28;59.34
73566;BME280;61846;52.970;-3.168;2023-04-10T01:54:48;99968.89;;;9.53;57.31
73566;BME280;61846;52.970;-3.168;2023-04-10T01:57:13;99966.09;;;8.70;58.74
73566;BME280;61846;52.970;-3.168;2023-04-10T01:59:38;99969.19;;;8.94;58.55
73566;BME280;61846;52.970;-3.168;2023-04-10T02:02:04;99962.95;;;10.06;56.12
73566;BME280;61846;52.970;-3.168;2023-04-10T02:04:29;99959.24;;;9.23;56.71
73566;BME280;61846;52.970;-3.168;2023-04-10T02:07:02;99956.60;;;9.80;56.98
73566;BME280;61846;52.970;-3.168;2023-04-10T02:09:30;99953.96;;;10.55;54.19
73566;BME280;61846;52.970;-3.168;2023-04-10T02:11:51;99948.65;;;9.66;56.56
73566;BME280;61846;52.970;-3.168;2023-04-10T02:14:15;99944.53;;;10.74;53.76
73566;BME280;61846;52.970;-3.168;2023-04-10T02:16:38;99944.06;;;10.46;54.24
73566;BME280;61846;52.970;-3.168;2023-04-10T02:19:04;99943.41;;;10.18;54.83
73566;BME280;61846;52.970;-3.168;2023-04-10T02:21:29;99949.30;;;8.90;58.98
73566;BME280;61846;52.970;-3.168;2023-04-10T02:23:56;99943.41;;;10.12;56.19
73566;BME280;61846;52.970;-3.168;2023-04-10T02:26:20;99935.69;;;8.87;57.83
73566;BME280;61846;52.970;-3.168;2023-04-10T02:28:45;99935.26;;;9.71;55.98
73566;BME280;61846;52.970;-3.168;2023-04-10T02:31:11;99932.24;;;10.13;54.97
73566;BME280;61846;52.970;-3.168;2023-04-10T02:33:36;99919.33;;;10.42;54.78
73566;BME280;61846;52.970;-3.168;2023-04-10T02:36:02;99911.88;;;8.97;57.41
73566;BME280;61846;52.970;-3.168;2023-04-10T02:38:28;99903.36;;;9.41;57.74
73566;BME280;61846;52.970;-3.168;2023-04-10T02:40:53;99899.59;;;11.14;52.72
73566;BME280;61846;52.970;-3.168;2023-04-10T02:43:19;99888.24;;;11.36;51.60
73566;BME280;61846;52.970;-3.168;2023-04-10T02:45:44;99881.83;;;12.14;50.49
73566;BME280;61846;52.970;-3.168;2023-04-10T02:48:10;99879.79;;;10.69;53.22
73566;BME280;61846;52.970;-3.168;2023-04-10T02:50:36;99884.35;;;10.55;52.76
73566;BME280;61846;52.970;-3.168;2023-04-10T02:53:01;99883.30;;;10.92;52.73
73566;BME280;61846;52.970;-3.168;2023-04-10T02:55:27;99882.10;;;10.74;53.44
73566;BME280;61846;52.970;-3.168;2023-04-10T02:57:52;99880.39;;;9.86;55.24
73566;BME280;61846;52.970;-3.168;2023-04-10T03:00:18;99880.61;;;10.78;52.82
73566;BME280;61846;52.970;-3.168;2023-04-10T03:02:43;99879.58;;;10.48;53.84
73566;BME280;61846;52.970;-3.168;2023-04-10T03:05:09;99879.65;;;11.33;51.83
73566;BME280;61846;52.970;-3.168;2023-04-10T03:07:34;99866.73;;;12.02;50.31
73566;BME280;61846;52.970;-3.168;2023-04-10T03:10:00;99847.30;;;12.40;50.28
73566;BME280;61846;52.970;-3.168;2023-04-10T03:12:26;99846.47;;;11.21;52.72
73566;BME280;61846;52.970;-3.168;2023-04-10T03:14:51;99849.59;;;11.14;51.97
73566;BME280;61846;52.970;-3.168;2023-04-10T03:17:17;99845.39;;;12.03;50.32
73566;BME280;61846;52.970;-3.168;2023-04-10T03:19:42;99833.91;;;12.53;49.02
73566;BME280;61846;52.970;-3.168;2023-04-10T03:22:08;99838.15;;;12.68;48.62
73566;BME280;61846;52.970;-3.168;2023-04-10T03:24:33;99833.31;;;12.73;48.97
73566;BME280;61846;52.970;-3.168;2023-04-10T03:26:59;99819.53;;;13.22;47.33
73566;BME280;61846;52.970;-3.168;2023-04-10T03:29:24;99837.12;;;13.66;46.42
73566;BME280;61846;52.970;-3.168;2023-04-10T03:31:50;99838.56;;;13.68;45.84
73566;BME280;61846;52.970;-3.168;2023-04-10T03:34:16;99825.95;;;13.18;46.90
73566;BME280;61846;52.970;-3.168;2023-04-10T03:36:41;99826.54;;;13.95;46.41
73566;BME280;61846;52.970;-3.168;2023-04-10T03:39:07;99825.60;;;12.69;47.46
73566;BME280;61846;52.970;-3.168;2023-04-10T03:41:32;99831.32;;;13.26;46.75
73566;BME280;61846;52.970;-3.168;2023-04-10T03:43:58;99829.49;;;13.62;46.11
73566;BME280;61846;52.970;-3.168;2023-04-10T03:46:23;99824.45;;;13.16;47.05
73566;BME280;61846;52.970;-3.168;2023-04-10T03:48:49;99828.05;;;13.43;46.34
73566;BME280;61846;52.970;-3.168;2023-04-10T03:51:14;99817.05;;;13.67;45.86
73566;BME280;61846;52.970;-3.168;2023-04-10T03:53:40;99816.01;;;13.54;46.99
73566;BME280;61846;52.970;-3.168;2023-04-10T03:56:07;99816.38;;;13.38;46.55
73566;BME280;61846;52.970;-3.168;2023-04-10T03:58:31;99808.10;;;13.99;45.55
73566;BME280;61846;52.970;-3.168;2023-04-10T04:00:56;99800.77;;;14.10;45.30
73566;BME280;61846;52.970;-3.168;2023-04-10T04:03:22;99802.29;;;14.56;44.13
73566;BME280;61846;52.970;-3.168;2023-04-10T04:05:47;99794.35;;;14.24;44.41
73566;BME280;61846;52.970;-3.168;2023-04-10T04:08:13;99792.75;;;13.86;45.82
73566;BME280;61846;52.970;-3.168;2023-04-10T04:10:38;99791.12;;;14.29;45.35
73566;BME280;61846;52.970;-3.168;2023-04-10T04:13:04;99795.82;;;13.70;46.10
73566;BME280;61846;52.970;-3.168;2023-04-10T04:15:29;99796.57;;;12.49;48.55
73566;BME280;61846;52.970;-3.168;2023-04-10T04:17:56;99792.87;;;11.46;50.91
73566;BME280;61846;52.970;-3.168;2023-04-10T04:20:21;99792.60;;;12.17;50.89
73566;BME280;61846;52.970;-3.168;2023-04-10T04:22:46;99782.83;;;11.56;51.47
73566;BME280;61846;52.970;-3.168;2023-04-10T04:25:12;99785.85;;;10.47;55.27
73566;BME280;61846;52.970;-3.168;2023-04-10T04:27:37;99788.90;;;11.30;52.44
73566;BME280;61846;52.970;-3.168;2023-04-10T04:30:03;99783.72;;;11.07;53.14
73566;BME280;61846;52.970;-3.168;2023-04-10T04:32:28;99775.22;;;11.90;51.25
73566;BME280;61846;52.970;-3.168;2023-04-10T04:34:54;99762.20;;;12.16;50.70
73566;BME280;61846;52.970;-3.168;2023-04-10T04:37:19;99761.18;;;10.23;54.41
73566;BME280;61846;52.970;-3.168;2023-04-10T04:39:45;99757.82;;;10.77;53.98
73566;BME280;61846;52.970;-3.168;2023-04-10T04:42:10;99760.39;;;10.67;54.10
73566;BME280;61846;52.970;-3.168;2023-04-10T04:44:36;99755.07;;;11.08;53.12
73566;BME280;61846;52.970;-3.168;2023-04-10T04:47:02;99750.37;;;9.22;56.82
73566;BME280;61846;52.970;-3.168;2023-04-10T04:49:27;99752.96;;;11.24;52.44
73566;BME280;61846;52.970;-3.168;2023-04-10T04:51:53;99744.68;;;12.06;51.08
73566;BME280;61846;52.970;-3.168;2023-04-10T04:54:18;99745.04;;;10.71;52.84
73566;BME280;61846;52.970;-3.168;2023-04-10T04:56:44;99750.67;;;9.22;56.30
73566;BME280;61846;52.970;-3.168;2023-04-10T04:59:09;99746.81;;;10.32;54.25
73566;BME280;61846;52.970;-3.168;2023-04-10T05:01:35;99743.40;;;10.76;53.89
73566;BME280;61846;52.970;-3.168;2023-04-10T05:04:00;99741.06;;;9.53;56.51
73566;BME280;61846;52.970;-3.168;2023-04-10T05:06:26;99749.25;;;8.65;58.14
73566;BME280;61846;52.970;-3.168;2023-04-10T05:08:51;99746.27;;;10.83;53.66
73566;BME280;61846;52.970;-3.168;2023-04-10T05:11:17;99748.45;;;10.27;53.72
73566;BME280;61846;52.970;-3.168;2023-04-10T05:13:42;99744.20;;;12.14;49.58
73566;BME280;61846;52.970;-3.168;2023-04-10T05:16:08;99737.04;;;10.77;52.56
73566;BME280;61846;52.970;-3.168;2023-04-10T05:18:34;99745.30;;;11.42;51.23
73566;BME280;61846;52.970;-3.168;2023-04-10T05:20:59;99746.14;;;10.39;53.35
73566;BME280;61846;52.970;-3.168;2023-04-10T05:23:25;99739.53;;;12.03;49.50
73566;BME280;61846;52.970;-3.168;2023-04-10T05:25:50;99749.30;;;11.14;52.07
73566;BME280;61846;52.970;-3.168;2023-04-10T05:28:16;99742.47;;;10.98;51.79
73566;BME280;61846;52.970;-3.168;2023-04-10T05:30:41;99740.16;;;10.55;52.05
73566;BME280;61846;52.970;-3.168;2023-04-10T05:33:07;99729.80;;;9.81;54.17
73566;BME280;61846;52.970;-3.168;2023-04-10T05:35:32;99735.94;;;10.86;52.30
73566;BME280;61846;52.970;-3.168;2023-04-10T05:37:58;99738.10;;;11.86;49.23
73566;BME280;61846;52.970;-3.168;2023-04-10T05:40:23;99723.67;;;12.80;47.76
73566;BME280;61846;52.970;-3.168;2023-04-10T05:42:49;99731.92;;;13.14;47.42
73566;BME280;61846;52.970;-3.168;2023-04-10T05:45:14;99738.09;;;11.38;49.76
73566;BME280;61846;52.970;-3.168;2023-04-10T05:47:40;99736.20;;;12.78;47.40
73566;BME280;61846;52.970;-3.168;2023-04-10T05:50:06;99733.94;;;13.79;45.42
73566;BME280;61846;52.970;-3.168;2023-04-10T05:52:31;99728.27;;;13.91;45.40
73566;BME280;61846;52.970;-3.168;2023-04-10T05:54:56;99730.95;;;14.49;44.37
73566;BME280;61846;52.970;-3.168;2023-04-10T05:57:23;99731.65;;;14.46;44.55
73566;BME280;61846;52.970;-3.168;2023-04-10T05:59:48;99727.36;;;14.69;44.08
73566;BME280;61846;52.970;-3.168;2023-04-10T06:02:13;99727.67;;;14.79;43.60
73566;BME280;61846;52.970;-3.168;2023-04-10T06:04:38;99724.16;;;14.14;44.59
73566;BME280;61846;52.970;-3.168;2023-04-10T06:07:04;99724.38;;;14.38;44.16
73566;BME280;61846;52.970;-3.168;2023-04-10T06:09:29;99704.69;;;14.04;44.83
73566;BME280;61846;52.970;-3.168;2023-04-10T06:11:55;99704.74;;;14.61;43.60
73566;BME280;61846;52.970;-3.168;2023-04-10T06:14:20;99702.39;;;14.25;44.51
73566;BME280;61846;52.970;-3.168;2023-04-10T06:16:46;99699.11;;;14.62;43.95
73566;BME280;61846;52.970;-3.168;2023-04-10T06:19:11;99694.99;;;14.38;44.27
73566;BME280;61846;52.970;-3.168;2023-04-10T06:21:36;99690.95;;;14.36;44.01
73566;BME280;61846;52.970;-3.168;2023-04-10T06:24:02;99689.02;;;14.99;43.09
73566;BME280;61846;52.970;-3.168;2023-04-10T06:26:27;99694.21;;;15.00;44.19
73566;BME280;61846;52.970;-3.168;2023-04-10T06:28:53;99703.64;;;14.19;45.45
73566;BME280;61846;52.970;-3.168;2023-04-10T06:31:19;99691.66;;;15.24;44.04
73566;BME280;61846;52.970;-3.168;2023-04-10T06:33:44;99689.46;;;14.95;44.17
73566;BME280;61846;52.970;-3.168;2023-04-10T06:36:09;99685.85;;;14.87;44.20
73566;BME280;61846;52.970;-3.168;2023-04-10T06:38:35;99681.95;;;15.09;43.47
73566;BME280;61846;52.970;-3.168;2023-04-10T06:41:00;99683.60;;;14.90;44.31
73566;BME280;61846;52.970;-3.168;2023-04-10T06:43:26;99677.16;;;15.12;43.95
73566;BME280;61846;52.970;-3.168;2023-04-10T06:45:51;99673.88;;;14.16;45.25
73566;BME280;61846;52.970;-3.168;2023-04-10T06:48:17;99668.86;;;13.90;45.95
73566;BME280;61846;52.970;-3.168;2023-04-10T06:50:42;99670.48;;;12.96;47.94
73566;BME280;61846;52.970;-3.168;2023-04-10T06:53:08;99661.54;;;13.32;46.18
73566;BME280;61846;52.970;-3.168;2023-04-10T06:55:34;99653.13;;;13.23;46.99
73566;BME280;61846;52.970;-3.168;2023-04-10T06:57:59;99645.10;;;12.24;49.67
73566;BME280;61846;52.970;-3.168;2023-04-10T07:00:24;99649.23;;;11.13;51.69
73566;BME280;61846;52.970;-3.168;2023-04-10T07:02:49;99644.03;;;10.92;53.36
73566;BME280;61846;52.970;-3.168;2023-04-10T07:05:15;99634.05;;;12.11;51.28
73566;BME280;61846;52.970;-3.168;2023-04-10T07:07:41;99633.89;;;12.71;49.64
73566;BME280;61846;52.970;-3.168;2023-04-10T07:10:07;99638.10;;;13.44;49.02
73566;BME280;61846;52.970;-3.168;2023-04-10T07:12:32;99632.95;;;12.90;48.72
73566;BME280;61846;52.970;-3.168;2023-04-10T07:14:57;99628.36;;;11.48;52.35
73566;BME280;61846;52.970;-3.168;2023-04-10T07:17:23;99621.38;;;11.96;51.14
73566;BME280;61846;52.970;-3.168;2023-04-10T07:19:48;99621.57;;;12.83;49.80
73566;BME280;61846;52.970;-3.168;2023-04-10T07:22:14;99624.70;;;12.63;49.68
73566;BME280;61846;52.970;-3.168;2023-04-10T07:24:39;99618.50;;;13.11;48.49
73566;BME280;61846;52.970;-3.168;2023-04-10T07:27:05;99615.51;;;12.68;48.78
73566;BME280;61846;52.970;-3.168;2023-04-10T07:29:31;99616.81;;;12.97;48.15
73566;BME280;61846;52.970;-3.168;2023-04-10T07:31:56;99615.45;;;12.34;49.84
73566;BME280;61846;52.970;-3.168;2023-04-10T07:34:22;99615.86;;;11.36;52.10
73566;BME280;61846;52.970;-3.168;2023-04-10T07:36:47;99613.71;;;13.21;48.12
73566;BME280;61846;52.970;-3.168;2023-04-10T07:39:13;99612.62;;;13.90;46.41
73566;BME280;61846;52.970;-3.168;2023-04-10T07:41:39;99606.54;;;13.77;47.00
73566;BME280;61846;52.970;-3.168;2023-04-10T07:44:04;99601.57;;;14.67;45.33
73566;BME280;61846;52.970;-3.168;2023-04-10T07:46:29;99604.67;;;15.26;44.72
73566;BME280;61846;52.970;-3.168;2023-04-10T07:48:54;99601.35;;;12.21;49.40
73566;BME280;61846;52.970;-3.168;2023-04-10T07:51:20;99602.50;;;12.95;48.90
73566;BME280;61846;52.970;-3.168;2023-04-10T07:53:46;99596.45;;;12.40;48.96
73566;BME280;61846;52.970;-3.168;2023-04-10T07:56:14;99594.58;;;12.96;47.44
73566;BME280;61846;52.970;-3.168;2023-04-10T07:58:36;99590.35;;;13.39;46.93
73566;BME280;61846;52.970;-3.168;2023-04-10T08:01:01;99592.52;;;13.27;47.45
73566;BME280;61846;52.970;-3.168;2023-04-10T08:03:27;99588.77;;;14.26;46.46
73566;BME280;61846;52.970;-3.168;2023-04-10T08:05:53;99578.20;;;14.00;45.23
73566;BME280;61846;52.970;-3.168;2023-04-10T08:08:18;99569.12;;;11.87;49.15
73566;BME280;61846;52.970;-3.168;2023-04-10T08:10:43;99582.99;;;9.33;54.84
73566;BME280;61846;52.970;-3.168;2023-04-10T08:13:09;99572.30;;;10.75;53.12
73566;BME280;61846;52.970;-3.168;2023-04-10T08:15:34;99565.21;;;11.67;51.57
73566;BME280;61846;52.970;-3.168;2023-04-10T08:18:00;99565.81;;;12.92;49.11
73566;BME280;61846;52.970;-3.168;2023-04-10T08:20:25;99555.45;;;12.09;50.05
73566;BME280;61846;52.970;-3.168;2023-04-10T08:22:50;99542.06;;;13.34;48.01
73566;BME280;61846;52.970;-3.168;2023-04-10T08:25:16;99551.09;;;13.82;47.50
73566;BME280;61846;52.970;-3.168;2023-04-10T08:27:41;99542.87;;;13.99;46.58
73566;BME280;61846;52.970;-3.168;2023-04-10T08:30:08;99535.34;;;14.19;44.58
73566;BME280;61846;52.970;-3.168;2023-04-10T08:32:33;99535.74;;;14.52;44.62
73566;BME280;61846;52.970;-3.168;2023-04-10T08:34:58;99526.59;;;13.60;46.34
73566;BME280;61846;52.970;-3.168;2023-04-10T08:37:24;99517.43;;;14.28;45.70
73566;BME280;61846;52.970;-3.168;2023-04-10T08:39:49;99509.00;;;15.39;43.97
73566;BME280;61846;52.970;-3.168;2023-04-10T08:42:15;99502.12;;;15.77;43.29
73566;BME280;61846;52.970;-3.168;2023-04-10T08:44:40;99498.61;;;14.95;45.29
73566;BME280;61846;52.970;-3.168;2023-04-10T08:47:07;99488.47;;;15.42;43.83
73566;BME280;61846;52.970;-3.168;2023-04-10T08:49:39;99487.00;;;15.99;42.04
73566;BME280;61846;52.970;-3.168;2023-04-10T08:51:58;99481.18;;;15.41;44.57
73566;BME280;61846;52.970;-3.168;2023-04-10T08:54:26;99476.50;;;16.11;40.76
73566;BME280;61846;52.970;-3.168;2023-04-10T08:56:50;99473.64;;;16.50;42.07
73566;BME280;61846;52.970;-3.168;2023-04-10T08:59:13;99485.83;;;14.68;43.11
73566;BME280;61846;52.970;-3.168;2023-04-10T09:01:39;99491.46;;;16.11;41.91
73566;BME280;61846;52.970;-3.168;2023-04-10T09:04:04;99485.97;;;13.82;43.06
73566;BME280;61846;52.970;-3.168;2023-04-10T09:06:29;99491.23;;;9.87;50.38
73566;BME280;61846;52.970;-3.168;2023-04-10T09:08:55;99478.36;;;10.04;52.34
73566;BME280;61846;52.970;-3.168;2023-04-10T09:11:20;99475.38;;;12.50;48.43
73566;BME280;61846;52.970;-3.168;2023-04-10T09:13:46;99471.01;;;12.31;48.82
73566;BME280;61846;52.970;-3.168;2023-04-10T09:16:13;99465.75;;;14.29;45.55
73566;BME280;61846;52.970;-3.168;2023-04-10T09:18:44;99467.78;;;14.63;43.85
73566;BME280;61846;52.970;-3.168;2023-04-10T09:21:06;99467.11;;;14.59;42.15
73566;BME280;61846;52.970;-3.168;2023-04-10T09:23:27;99471.97;;;14.35;41.76
73566;BME280;61846;52.970;-3.168;2023-04-10T09:25:53;99458.08;;;13.82;44.82
73566;BME280;61846;52.970;-3.168;2023-04-10T09:28:18;99446.02;;;14.39;41.96
73566;BME280;61846;52.970;-3.168;2023-04-10T09:30:44;99436.93;;;15.60;41.37
73566;BME280;61846;52.970;-3.168;2023-04-10T09:33:21;99438.11;;;13.60;42.59
73566;BME280;61846;52.970;-3.168;2023-04-10T09:35:36;99435.86;;;11.88;43.84
73566;BME280;61846;52.970;-3.168;2023-04-10T09:38:00;99431.11;;;12.81;42.11
73566;BME280;61846;52.970;-3.168;2023-04-10T09:40:25;99427.10;;;13.60;42.27
73566;BME280;61846;52.970;-3.168;2023-04-10T09:42:52;99418.46;;;14.99;39.36
73566;BME280;61846;52.970;-3.168;2023-04-10T09:45:17;99405.08;;;15.02;40.45
73566;BME280;61846;52.970;-3.168;2023-04-10T09:47:42;99408.42;;;14.44;41.73
73566;BME280;61846;52.970;-3.168;2023-04-10T09:50:08;99397.22;;;14.62;38.96
73566;BME280;61846;52.970;-3.168;2023-04-10T09:52:34;99393.75;;;15.49;38.98
73566;BME280;61846;52.970;-3.168;2023-04-10T09:55:00;99391.17;;;14.53;39.52
73566;BME280;61846;52.970;-3.168;2023-04-10T09:57:26;99398.94;;;15.35;38.30
73566;BME280;61846;52.970;-3.168;2023-04-10T09:59:50;99391.95;;;13.45;40.55
73566;BME280;61846;52.970;-3.168;2023-04-10T10:02:16;99394.88;;;12.82;42.28
73566;BME280;61846;52.970;-3.168;2023-04-10T10:04:41;99385.65;;;14.44;40.57
73566;BME280;61846;52.970;-3.168;2023-04-10T10:07:06;99376.35;;;15.12;38.48
73566;BME280;61846;52.970;-3.168;2023-04-10T10:09:31;99371.85;;;15.94;38.57
73566;BME280;61846;52.970;-3.168;2023-04-10T10:11:57;99366.19;;;14.72;39.96
73566;BME280;61846;52.970;-3.168;2023-04-10T10:14:26;99365.48;;;15.60;41.16
73566;BME280;61846;52.970;-3.168;2023-04-10T10:16:49;99371.26;;;13.79;41.48
73566;BME280;61846;52.970;-3.168;2023-04-10T10:19:16;99355.86;;;14.42;39.24
73566;BME280;61846;52.970;-3.168;2023-04-10T10:21:38;99367.03;;;14.75;40.99
73566;BME280;61846;52.970;-3.168;2023-04-10T10:24:07;99357.39;;;15.10;40.40
73566;BME280;61846;52.970;-3.168;2023-04-10T10:26:29;99366.84;;;15.28;40.93
73566;BME280;61846;52.970;-3.168;2023-04-10T10:28:55;99370.03;;;14.93;42.63
73566;BME280;61846;52.970;-3.168;2023-04-10T10:31:20;99376.51;;;14.36;42.89
73566;BME280;61846;52.970;-3.168;2023-04-10T10:33:46;99375.91;;;15.28;42.31
73566;BME280;61846;52.970;-3.168;2023-04-10T10:36:11;99376.98;;;14.26;41.26
73566;BME280;61846;52.970;-3.168;2023-04-10T10:38:40;99371.74;;;14.11;43.79
73566;BME280;61846;52.970;-3.168;2023-04-10T10:41:09;99372.35;;;15.22;41.31
73566;BME280;61846;52.970;-3.168;2023-04-10T10:43:35;99361.01;;;13.53;44.33
73566;BME280;61846;52.970;-3.168;2023-04-10T10:45:56;99363.36;;;13.41;44.87
73566;BME280;61846;52.970;-3.168;2023-04-10T10:48:18;99370.80;;;13.98;45.93
73566;BME280;61846;52.970;-3.168;2023-04-10T10:50:51;99393.14;;;12.47;46.49
73566;BME280;61846;52.970;-3.168;2023-04-10T10:55:35;99418.06;;;10.91;49.68
73566;BME280;61846;52.970;-3.168;2023-04-10T10:58:01;99395.81;;;11.01;50.90
73566;BME280;61846;52.970;-3.168;2023-04-10T11:01:02;99374.93;;;11.64;49.68
73566;BME280;61846;52.970;-3.168;2023-04-10T11:10:07;99394.55;;;9.54;53.71
73566;BME280;61846;52.970;-3.168;2023-04-10T11:14:59;99392.14;;;10.46;52.34
73566;BME280;61846;52.970;-3.168;2023-04-10T11:19:58;99404.42;;;9.49;50.76
73566;BME280;61846;52.970;-3.168;2023-04-10T11:22:15;99397.77;;;9.56;57.24
73566;BME280;61846;52.970;-3.168;2023-04-10T11:24:52;99403.93;;;9.61;51.67
73566;BME280;61846;52.970;-3.168;2023-04-10T11:27:06;99390.73;;;9.40;52.54
73566;BME280;61846;52.970;-3.168;2023-04-10T11:29:32;99397.75;;;10.31;53.16
73566;BME280;61846;52.970;-3.168;2023-04-10T11:31:58;99390.50;;;9.98;53.31
73566;BME280;61846;52.970;-3.168;2023-04-10T11:34:22;99398.54;;;9.58;50.71
73566;BME280;61846;52.970;-3.168;2023-04-10T11:36:48;99401.52;;;9.03;52.34
73566;BME280;61846;52.970;-3.168;2023-04-10T11:39:14;99404.21;;;9.03;54.68
73566;BME280;61846;52.970;-3.168;2023-04-10T11:41:40;99397.20;;;8.90;54.51
73566;BME280;61846;52.970;-3.168;2023-04-10T11:44:06;99400.47;;;9.49;55.78
73566;BME280;61846;52.970;-3.168;2023-04-10T11:46:30;99398.89;;;9.71;53.94
73566;BME280;61846;52.970;-3.168;2023-04-10T11:48:57;99399.06;;;10.10;55.02
73566;BME280;61846;52.970;-3.168;2023-04-10T11:51:21;99397.38;;;10.86;54.23
73566;BME280;61846;52.970;-3.168;2023-04-10T11:53:46;99395.16;;;10.30;52.58
73566;BME280;61846;52.970;-3.168;2023-04-10T11:56:16;99384.90;;;11.82;49.86
73566;BME280;61846;52.970;-3.168;2023-04-10T11:58:37;99383.87;;;12.09;49.80
73566;BME280;61846;52.970;-3.168;2023-04-10T12:01:03;99386.90;;;12.07;49.84
73566;BME280;61846;52.970;-3.168;2023-04-10T12:03:34;99385.86;;;11.20;50.50
73566;BME280;61846;52.970;-3.168;2023-04-10T12:05:54;99389.95;;;11.76;51.27
73566;BME280;61846;52.970;-3.168;2023-04-10T12:08:20;99383.16;;;11.79;52.11
73566;BME280;61846;52.970;-3.168;2023-04-10T12:10:45;99382.47;;;11.96;51.53
73566;BME280;61846;52.970;-3.168;2023-04-10T12:15:36;99391.54;;;11.28;49.32
73566;BME280;61846;52.970;-3.168;2023-04-10T12:18:02;99394.44;;;11.50;48.80
73566;BME280;61846;52.970;-3.168;2023-04-10T12:20:27;99395.94;;;11.37;49.64
73566;BME280;61846;52.970;-3.168;2023-04-10T12:22:53;99401.32;;;11.55;47.58
73566;BME280;61846;52.970;-3.168;2023-04-10T12:25:20;99393.83;;;12.43;48.44
73566;BME280;61846;52.970;-3.168;2023-04-10T12:27:48;99397.85;;;11.65;48.35
73566;BME280;61846;52.970;-3.168;2023-04-10T12:30:09;99412.47;;;11.90;46.38
73566;BME280;61846;52.970;-3.168;2023-04-10T12:32:34;99390.93;;;12.23;46.82
73566;BME280;61846;52.970;-3.168;2023-04-10T12:35:00;99383.85;;;12.05;47.30
73566;BME280;61846;52.970;-3.168;2023-04-10T12:39:51;99391.03;;;12.63;45.33
73566;BME280;61846;52.970;-3.168;2023-04-10T12:42:18;99401.44;;;13.23;42.97
73566;BME280;61846;52.970;-3.168;2023-04-10T12:44:52;99411.04;;;13.43;46.86
73566;BME280;61846;52.970;-3.168;2023-04-10T12:47:07;99410.61;;;13.40;45.04
73566;BME280;61846;52.970;-3.168;2023-04-10T12:49:33;99405.04;;;12.21;45.11
73566;BME280;61846;52.970;-3.168;2023-04-10T12:51:58;99419.48;;;12.44;45.64
73566;BME280;61846;52.970;-3.168;2023-04-10T12:54:28;99415.77;;;12.36;45.40
73566;BME280;61846;52.970;-3.168;2023-04-10T12:56:49;99423.40;;;11.70;46.23
73566;BME280;61846;52.970;-3.168;2023-04-10T12:59:15;99431.62;;;11.05;46.40
73566;BME280;61846;52.970;-3.168;2023-04-10T13:01:40;99425.01;;;11.78;46.07